sensor_id;sensor_type;location;lat;lon;timestamp;P1;durP1;ratioP1;P2;durP2;ratioP2
2756;SDS011;1386;50.862;6.494;2024-01-27T00:01:04;8.37;;;4.40;;
2756;SDS011;1386;50.862;6.494;2024-01-27T00:03:31;10.57;;;5.30;;
2756;SDS011;1386;50.862;6.494;2024-01-27T00:05:58;6.93;;;4.60;;
2756;SDS011;1386;50.862;6.494;2024-01-27T00:08:26;15.63;;;4.90;;
2756;SDS011;1386;50.862;6.494;2024-01-27T00:10:53;7.43;;;4.63;;
2756;SDS011;1386;50.862;6.494;2024-01-27T00:13:20;15.37;;;5.37;;
2756;SDS011;1386;50.862;6.494;2024-01-27T00:15:47;16.20;;;5.10;;
2756;SDS011;1386;50.862;6.494;2024-01-27T00:18:14;11.60;;;4.50;;
2756;SDS011;1386;50.862;6.494;2024-01-27T00:20:42;9.47;;;4.83;;
2756;SDS011;1386;50.862;6.494;2024-01-27T00:23:08;11.37;;;4.40;;
2756;SDS011;1386;50.862;6.494;2024-01-27T00:25:37;12.23;;;4.57;;
2756;SDS011;1386;50.862;6.494;2024-01-27T00:28:04;11.30;;;6.50;;
2756;SDS011;1386;50.862;6.494;2024-01-27T00:30:31;13.03;;;4.30;;
2756;SDS011;1386;50.862;6.494;2024-01-27T00:32:57;8.23;;;4.63;;
2756;SDS011;1386;50.862;6.494;2024-01-27T00:35:24;8.07;;;4.90;;
2756;SDS011;1386;50.862;6.494;2024-01-27T00:37:51;11.63;;;5.30;;
2756;SDS011;1386;50.862;6.494;2024-01-27T00:40:18;10.63;;;5.90;;
2756;SDS011;1386;50.862;6.494;2024-01-27T00:42:47;13.30;;;4.17;;
2756;SDS011;1386;50.862;6.494;2024-01-27T00:45:14;7.83;;;4.10;;
2756;SDS011;1386;50.862;6.494;2024-01-27T00:47:41;10.30;;;5.60;;
2756;SDS011;1386;50.862;6.494;2024-01-27T00:50:08;14.97;;;5.20;;
2756;SDS011;1386;50.862;6.494;2024-01-27T00:52:36;11.20;;;4.27;;
2756;SDS011;1386;50.862;6.494;2024-01-27T00:55:03;11.47;;;5.00;;
2756;SDS011;1386;50.862;6.494;2024-01-27T00:57:30;10.47;;;5.27;;
2756;SDS011;1386;50.862;6.494;2024-01-27T00:59:58;12.07;;;5.10;;
2756;SDS011;1386;50.862;6.494;2024-01-27T01:02:24;8.00;;;4.40;;
2756;SDS011;1386;50.862;6.494;2024-01-27T01:04:51;6.87;;;4.60;;
2756;SDS011;1386;50.862;6.494;2024-01-27T01:07:18;5.80;;;4.83;;
2756;SDS011;1386;50.862;6.494;2024-01-27T01:09:45;8.10;;;5.57;;
2756;SDS011;1386;50.862;6.494;2024-01-27T01:12:12;7.80;;;4.27;;
2756;SDS011;1386;50.862;6.494;2024-01-27T01:14:40;12.27;;;4.80;;
2756;SDS011;1386;50.862;6.494;2024-01-27T01:17:08;12.50;;;4.83;;
2756;SDS011;1386;50.862;6.494;2024-01-27T01:19:36;13.63;;;4.60;;
2756;SDS011;1386;50.862;6.494;2024-01-27T01:22:03;6.80;;;4.20;;
2756;SDS011;1386;50.862;6.494;2024-01-27T01:24:30;11.07;;;5.33;;
2756;SDS011;1386;50.862;6.494;2024-01-27T01:26:57;10.97;;;5.50;;
2756;SDS011;1386;50.862;6.494;2024-01-27T01:29:24;11.23;;;5.10;;
2756;SDS011;1386;50.862;6.494;2024-01-27T01:31:51;13.37;;;6.27;;
2756;SDS011;1386;50.862;6.494;2024-01-27T01:34:19;12.77;;;4.97;;
2756;SDS011;1386;50.862;6.494;2024-01-27T01:36:46;9.27;;;4.43;;
2756;SDS011;1386;50.862;6.494;2024-01-27T01:39:14;6.37;;;4.20;;
2756;SDS011;1386;50.862;6.494;2024-01-27T01:41:40;6.77;;;4.33;;
2756;SDS011;1386;50.862;6.494;2024-01-27T01:44:08;10.57;;;6.13;;
2756;SDS011;1386;50.862;6.494;2024-01-27T01:46:34;7.30;;;4.70;;
2756;SDS011;1386;50.862;6.494;2024-01-27T01:49:01;11.13;;;4.93;;
2756;SDS011;1386;50.862;6.494;2024-01-27T01:51:30;8.53;;;4.20;;
2756;SDS011;1386;50.862;6.494;2024-01-27T01:53:57;6.47;;;4.40;;
2756;SDS011;1386;50.862;6.494;2024-01-27T01:56:25;12.00;;;5.33;;
2756;SDS011;1386;50.862;6.494;2024-01-27T01:58:52;14.03;;;5.40;;
2756;SDS011;1386;50.862;6.494;2024-01-27T02:01:20;10.93;;;4.77;;
2756;SDS011;1386;50.862;6.494;2024-01-27T02:03:51;7.80;;;5.13;;
2756;SDS011;1386;50.862;6.494;2024-01-27T02:06:19;8.17;;;4.00;;
2756;SDS011;1386;50.862;6.494;2024-01-27T02:08:48;14.47;;;5.30;;
2756;SDS011;1386;50.862;6.494;2024-01-27T02:11:14;11.20;;;4.10;;
2756;SDS011;1386;50.862;6.494;2024-01-27T02:13:41;15.83;;;4.90;;
2756;SDS011;1386;50.862;6.494;2024-01-27T02:16:09;11.70;;;5.50;;
2756;SDS011;1386;50.862;6.494;2024-01-27T02:18:36;14.73;;;4.40;;
2756;SDS011;1386;50.862;6.494;2024-01-27T02:21:03;6.55;;;4.78;;
2756;SDS011;1386;50.862;6.494;2024-01-27T02:23:30;9.60;;;4.63;;
2756;SDS011;1386;50.862;6.494;2024-01-27T02:25:58;11.93;;;6.10;;
2756;SDS011;1386;50.862;6.494;2024-01-27T02:28:25;11.60;;;6.38;;
2756;SDS011;1386;50.862;6.494;2024-01-27T02:30:51;5.75;;;4.22;;
2756;SDS011;1386;50.862;6.494;2024-01-27T02:33:18;7.18;;;4.18;;
2756;SDS011;1386;50.862;6.494;2024-01-27T02:35:45;6.63;;;4.80;;
2756;SDS011;1386;50.862;6.494;2024-01-27T02:38:13;12.93;;;5.40;;
2756;SDS011;1386;50.862;6.494;2024-01-27T02:40:40;9.40;;;5.10;;
2756;SDS011;1386;50.862;6.494;2024-01-27T02:43:08;8.60;;;4.13;;
2756;SDS011;1386;50.862;6.494;2024-01-27T02:45:35;9.25;;;5.22;;
2756;SDS011;1386;50.862;6.494;2024-01-27T02:48:02;6.97;;;4.90;;
2756;SDS011;1386;50.862;6.494;2024-01-27T02:50:29;10.25;;;5.88;;
2756;SDS011;1386;50.862;6.494;2024-01-27T02:52:55;8.13;;;5.03;;
2756;SDS011;1386;50.862;6.494;2024-01-27T02:55:22;14.13;;;5.28;;
2756;SDS011;1386;50.862;6.494;2024-01-27T02:57:49;8.13;;;4.77;;
2756;SDS011;1386;50.862;6.494;2024-01-27T03:00:17;10.53;;;5.57;;
2756;SDS011;1386;50.862;6.494;2024-01-27T03:02:44;15.65;;;4.78;;
2756;SDS011;1386;50.862;6.494;2024-01-27T03:05:11;9.75;;;5.88;;
2756;SDS011;1386;50.862;6.494;2024-01-27T03:07:39;11.15;;;4.50;;
2756;SDS011;1386;50.862;6.494;2024-01-27T03:10:06;11.15;;;4.53;;
2756;SDS011;1386;50.862;6.494;2024-01-27T03:12:33;11.32;;;5.13;;
2756;SDS011;1386;50.862;6.494;2024-01-27T03:15:00;10.15;;;4.60;;
2756;SDS011;1386;50.862;6.494;2024-01-27T03:17:29;8.53;;;4.87;;
2756;SDS011;1386;50.862;6.494;2024-01-27T03:19:55;11.13;;;4.72;;
2756;SDS011;1386;50.862;6.494;2024-01-27T03:22:22;10.43;;;5.00;;
2756;SDS011;1386;50.862;6.494;2024-01-27T03:24:49;12.20;;;4.68;;
2756;SDS011;1386;50.862;6.494;2024-01-27T03:27:16;11.00;;;5.03;;
2756;SDS011;1386;50.862;6.494;2024-01-27T03:29:43;14.40;;;4.97;;
2756;SDS011;1386;50.862;6.494;2024-01-27T03:32:10;10.77;;;5.03;;
2756;SDS011;1386;50.862;6.494;2024-01-27T03:34:41;13.75;;;4.50;;
2756;SDS011;1386;50.862;6.494;2024-01-27T03:37:09;11.00;;;4.30;;
2756;SDS011;1386;50.862;6.494;2024-01-27T03:39:36;11.35;;;4.25;;
2756;SDS011;1386;50.862;6.494;2024-01-27T03:42:03;8.02;;;4.05;;
2756;SDS011;1386;50.862;6.494;2024-01-27T03:44:30;12.48;;;4.63;;
2756;SDS011;1386;50.862;6.494;2024-01-27T03:46:57;16.17;;;4.85;;
2756;SDS011;1386;50.862;6.494;2024-01-27T03:49:24;6.93;;;3.50;;
2756;SDS011;1386;50.862;6.494;2024-01-27T03:51:52;10.20;;;4.73;;
2756;SDS011;1386;50.862;6.494;2024-01-27T03:54:19;8.70;;;4.50;;
2756;SDS011;1386;50.862;6.494;2024-01-27T03:56:46;5.88;;;4.85;;
2756;SDS011;1386;50.862;6.494;2024-01-27T03:59:12;5.28;;;4.25;;
2756;SDS011;1386;50.862;6.494;2024-01-27T04:01:39;10.90;;;4.43;;
2756;SDS011;1386;50.862;6.494;2024-01-27T04:04:06;13.55;;;4.80;;
2756;SDS011;1386;50.862;6.494;2024-01-27T04:06:35;9.05;;;4.05;;
2756;SDS011;1386;50.862;6.494;2024-01-27T04:09:04;9.68;;;3.95;;
2756;SDS011;1386;50.862;6.494;2024-01-27T04:11:33;10.55;;;4.15;;
2756;SDS011;1386;50.862;6.494;2024-01-27T04:14:01;7.18;;;3.85;;
2756;SDS011;1386;50.862;6.494;2024-01-27T04:16:28;12.63;;;4.25;;
2756;SDS011;1386;50.862;6.494;2024-01-27T04:18:54;11.93;;;4.00;;
2756;SDS011;1386;50.862;6.494;2024-01-27T04:21:21;10.00;;;4.97;;
2756;SDS011;1386;50.862;6.494;2024-01-27T04:23:48;8.07;;;4.03;;
2756;SDS011;1386;50.862;6.494;2024-01-27T04:26:16;7.35;;;4.50;;
2756;SDS011;1386;50.862;6.494;2024-01-27T04:28:43;11.18;;;4.80;;
2756;SDS011;1386;50.862;6.494;2024-01-27T04:31:11;9.13;;;4.00;;
2756;SDS011;1386;50.862;6.494;2024-01-27T04:33:38;9.57;;;4.97;;
2756;SDS011;1386;50.862;6.494;2024-01-27T04:36:05;9.50;;;3.60;;
2756;SDS011;1386;50.862;6.494;2024-01-27T04:38:34;12.68;;;4.78;;
2756;SDS011;1386;50.862;6.494;2024-01-27T04:41:00;7.45;;;4.50;;
2756;SDS011;1386;50.862;6.494;2024-01-27T04:43:29;5.23;;;4.47;;
2756;SDS011;1386;50.862;6.494;2024-01-27T04:45:56;7.10;;;4.55;;
2756;SDS011;1386;50.862;6.494;2024-01-27T04:48:22;14.25;;;4.82;;
2756;SDS011;1386;50.862;6.494;2024-01-27T04:50:49;8.75;;;4.55;;
2756;SDS011;1386;50.862;6.494;2024-01-27T04:53:16;7.05;;;4.53;;
2756;SDS011;1386;50.862;6.494;2024-01-27T04:55:43;11.88;;;4.18;;
2756;SDS011;1386;50.862;6.494;2024-01-27T04:58:09;8.00;;;4.15;;
2756;SDS011;1386;50.862;6.494;2024-01-27T05:00:38;15.93;;;4.55;;
2756;SDS011;1386;50.862;6.494;2024-01-27T05:03:04;12.85;;;4.20;;
2756;SDS011;1386;50.862;6.494;2024-01-27T05:05:35;11.05;;;3.83;;
2756;SDS011;1386;50.862;6.494;2024-01-27T05:08:02;9.93;;;4.63;;
2756;SDS011;1386;50.862;6.494;2024-01-27T05:10:29;8.35;;;3.85;;
2756;SDS011;1386;50.862;6.494;2024-01-27T05:12:56;7.63;;;3.53;;
2756;SDS011;1386;50.862;6.494;2024-01-27T05:15:24;8.32;;;4.05;;
2756;SDS011;1386;50.862;6.494;2024-01-27T05:17:52;10.65;;;4.63;;
2756;SDS011;1386;50.862;6.494;2024-01-27T05:20:19;7.70;;;4.78;;
2756;SDS011;1386;50.862;6.494;2024-01-27T05:22:46;6.53;;;4.10;;
2756;SDS011;1386;50.862;6.494;2024-01-27T05:25:13;6.72;;;4.68;;
2756;SDS011;1386;50.862;6.494;2024-01-27T05:27:41;8.95;;;4.55;;
2756;SDS011;1386;50.862;6.494;2024-01-27T05:30:08;7.55;;;4.50;;
2756;SDS011;1386;50.862;6.494;2024-01-27T05:32:36;8.35;;;4.05;;
2756;SDS011;1386;50.862;6.494;2024-01-27T05:35:05;9.52;;;4.65;;
2756;SDS011;1386;50.862;6.494;2024-01-27T05:37:33;9.83;;;4.80;;
2756;SDS011;1386;50.862;6.494;2024-01-27T05:40:00;7.70;;;4.20;;
2756;SDS011;1386;50.862;6.494;2024-01-27T05:42:27;8.25;;;4.82;;
2756;SDS011;1386;50.862;6.494;2024-01-27T05:44:54;9.50;;;4.47;;
2756;SDS011;1386;50.862;6.494;2024-01-27T05:47:21;8.02;;;4.25;;
2756;SDS011;1386;50.862;6.494;2024-01-27T05:49:48;12.50;;;4.35;;
2756;SDS011;1386;50.862;6.494;2024-01-27T05:52:16;5.93;;;4.72;;
2756;SDS011;1386;50.862;6.494;2024-01-27T05:54:43;11.73;;;4.47;;
2756;SDS011;1386;50.862;6.494;2024-01-27T05:57:09;7.35;;;4.75;;
2756;SDS011;1386;50.862;6.494;2024-01-27T05:59:36;7.65;;;4.57;;
2756;SDS011;1386;50.862;6.494;2024-01-27T06:02:03;7.43;;;4.07;;
2756;SDS011;1386;50.862;6.494;2024-01-27T06:04:30;9.55;;;5.07;;
2756;SDS011;1386;50.862;6.494;2024-01-27T06:06:58;9.48;;;5.20;;
2756;SDS011;1386;50.862;6.494;2024-01-27T06:09:26;6.78;;;3.80;;
2756;SDS011;1386;50.862;6.494;2024-01-27T06:11:53;8.80;;;5.35;;
2756;SDS011;1386;50.862;6.494;2024-01-27T06:14:20;12.00;;;6.22;;
2756;SDS011;1386;50.862;6.494;2024-01-27T06:16:47;10.85;;;6.20;;
2756;SDS011;1386;50.862;6.494;2024-01-27T06:19:16;12.07;;;6.07;;
2756;SDS011;1386;50.862;6.494;2024-01-27T06:21:43;6.93;;;5.55;;
2756;SDS011;1386;50.862;6.494;2024-01-27T06:24:10;7.68;;;5.25;;
2756;SDS011;1386;50.862;6.494;2024-01-27T06:26:38;8.07;;;5.28;;
2756;SDS011;1386;50.862;6.494;2024-01-27T06:29:05;9.25;;;5.55;;
2756;SDS011;1386;50.862;6.494;2024-01-27T06:31:31;7.60;;;4.30;;
2756;SDS011;1386;50.862;6.494;2024-01-27T06:33:58;12.10;;;5.20;;
2756;SDS011;1386;50.862;6.494;2024-01-27T06:36:25;11.48;;;4.95;;
2756;SDS011;1386;50.862;6.494;2024-01-27T06:38:52;10.90;;;5.45;;
2756;SDS011;1386;50.862;6.494;2024-01-27T06:41:19;4.93;;;3.92;;
2756;SDS011;1386;50.862;6.494;2024-01-27T06:43:48;11.80;;;6.35;;
2756;SDS011;1386;50.862;6.494;2024-01-27T06:46:15;6.03;;;4.57;;
2756;SDS011;1386;50.862;6.494;2024-01-27T06:48:41;11.80;;;4.68;;
2756;SDS011;1386;50.862;6.494;2024-01-27T06:51:08;8.23;;;4.38;;
2756;SDS011;1386;50.862;6.494;2024-01-27T06:53:35;9.68;;;5.10;;
2756;SDS011;1386;50.862;6.494;2024-01-27T06:56:02;8.98;;;5.30;;
2756;SDS011;1386;50.862;6.494;2024-01-27T06:58:29;9.82;;;4.78;;
2756;SDS011;1386;50.862;6.494;2024-01-27T07:00:57;8.80;;;5.60;;
2756;SDS011;1386;50.862;6.494;2024-01-27T07:03:24;10.50;;;6.28;;
2756;SDS011;1386;50.862;6.494;2024-01-27T07:05:51;12.32;;;6.35;;
2756;SDS011;1386;50.862;6.494;2024-01-27T07:08:18;12.73;;;6.85;;
2756;SDS011;1386;50.862;6.494;2024-01-27T07:10:45;12.70;;;5.80;;
2756;SDS011;1386;50.862;6.494;2024-01-27T07:13:12;13.38;;;6.65;;
2756;SDS011;1386;50.862;6.494;2024-01-27T07:15:38;8.63;;;5.47;;
2756;SDS011;1386;50.862;6.494;2024-01-27T07:18:07;9.25;;;5.45;;
2756;SDS011;1386;50.862;6.494;2024-01-27T07:20:34;11.02;;;5.95;;
2756;SDS011;1386;50.862;6.494;2024-01-27T07:23:02;11.13;;;5.68;;
2756;SDS011;1386;50.862;6.494;2024-01-27T07:25:29;11.27;;;6.20;;
2756;SDS011;1386;50.862;6.494;2024-01-27T07:27:56;10.40;;;6.32;;
2756;SDS011;1386;50.862;6.494;2024-01-27T07:30:23;23.92;;;7.35;;
2756;SDS011;1386;50.862;6.494;2024-01-27T07:32:49;14.52;;;6.75;;
2756;SDS011;1386;50.862;6.494;2024-01-27T07:35:18;14.35;;;8.70;;
2756;SDS011;1386;50.862;6.494;2024-01-27T07:37:44;11.88;;;6.53;;
2756;SDS011;1386;50.862;6.494;2024-01-27T07:40:12;12.85;;;7.35;;
2756;SDS011;1386;50.862;6.494;2024-01-27T07:42:38;12.20;;;7.38;;
2756;SDS011;1386;50.862;6.494;2024-01-27T07:45:06;12.23;;;7.57;;
2756;SDS011;1386;50.862;6.494;2024-01-27T07:47:34;12.25;;;8.23;;
2756;SDS011;1386;50.862;6.494;2024-01-27T07:50:01;9.40;;;7.50;;
2756;SDS011;1386;50.862;6.494;2024-01-27T07:52:29;11.93;;;7.57;;
2756;SDS011;1386;50.862;6.494;2024-01-27T07:54:56;10.40;;;7.35;;
2756;SDS011;1386;50.862;6.494;2024-01-27T07:57:23;10.90;;;6.80;;
2756;SDS011;1386;50.862;6.494;2024-01-27T07:59:50;14.38;;;6.95;;
2756;SDS011;1386;50.862;6.494;2024-01-27T08:02:17;11.38;;;6.97;;
2756;SDS011;1386;50.862;6.494;2024-01-27T08:04:44;13.27;;;6.75;;
2756;SDS011;1386;50.862;6.494;2024-01-27T08:07:11;9.52;;;6.35;;
2756;SDS011;1386;50.862;6.494;2024-01-27T08:09:41;12.80;;;6.75;;
2756;SDS011;1386;50.862;6.494;2024-01-27T08:12:08;10.93;;;7.15;;
2756;SDS011;1386;50.862;6.494;2024-01-27T08:14:35;10.90;;;6.20;;
2756;SDS011;1386;50.862;6.494;2024-01-27T08:17:02;10.32;;;5.70;;
2756;SDS011;1386;50.862;6.494;2024-01-27T08:19:29;10.70;;;6.28;;
2756;SDS011;1386;50.862;6.494;2024-01-27T08:21:56;8.13;;;5.20;;
2756;SDS011;1386;50.862;6.494;2024-01-27T08:24:23;11.25;;;5.18;;
2756;SDS011;1386;50.862;6.494;2024-01-27T08:26:51;10.55;;;5.85;;
2756;SDS011;1386;50.862;6.494;2024-01-27T08:29:18;10.27;;;4.97;;
2756;SDS011;1386;50.862;6.494;2024-01-27T08:31:45;11.00;;;5.13;;
2756;SDS011;1386;50.862;6.494;2024-01-27T08:34:12;9.57;;;5.65;;
2756;SDS011;1386;50.862;6.494;2024-01-27T08:36:40;13.88;;;5.63;;
2756;SDS011;1386;50.862;6.494;2024-01-27T08:39:07;12.13;;;5.90;;
2756;SDS011;1386;50.862;6.494;2024-01-27T08:41:37;8.32;;;4.88;;
2756;SDS011;1386;50.862;6.494;2024-01-27T08:44:05;11.43;;;5.40;;
2756;SDS011;1386;50.862;6.494;2024-01-27T08:46:32;10.95;;;5.93;;
2756;SDS011;1386;50.862;6.494;2024-01-27T08:49:01;15.93;;;5.60;;
2756;SDS011;1386;50.862;6.494;2024-01-27T08:52:24;15.13;;;6.88;;
2756;SDS011;1386;50.862;6.494;2024-01-27T08:54:51;15.87;;;5.50;;
2756;SDS011;1386;50.862;6.494;2024-01-27T08:57:19;12.43;;;5.40;;
2756;SDS011;1386;50.862;6.494;2024-01-27T09:00:10;14.50;;;7.03;;
2756;SDS011;1386;50.862;6.494;2024-01-27T09:02:38;19.55;;;6.38;;
2756;SDS011;1386;50.862;6.494;2024-01-27T09:08:07;11.80;;;5.83;;
2756;SDS011;1386;50.862;6.494;2024-01-27T09:10:34;6.80;;;5.60;;
2756;SDS011;1386;50.862;6.494;2024-01-27T09:13:01;7.77;;;5.27;;
2756;SDS011;1386;50.862;6.494;2024-01-27T09:15:29;12.80;;;5.60;;
2756;SDS011;1386;50.862;6.494;2024-01-27T09:17:56;10.53;;;4.97;;
2756;SDS011;1386;50.862;6.494;2024-01-27T09:20:23;7.87;;;5.70;;
2756;SDS011;1386;50.862;6.494;2024-01-27T09:22:50;17.87;;;5.60;;
2756;SDS011;1386;50.862;6.494;2024-01-27T09:25:16;10.00;;;5.53;;
2756;SDS011;1386;50.862;6.494;2024-01-27T09:27:43;10.03;;;4.53;;
2756;SDS011;1386;50.862;6.494;2024-01-27T09:30:11;10.20;;;4.40;;
2756;SDS011;1386;50.862;6.494;2024-01-27T09:32:41;12.03;;;4.57;;
2756;SDS011;1386;50.862;6.494;2024-01-27T09:35:14;12.17;;;5.07;;
2756;SDS011;1386;50.862;6.494;2024-01-27T09:37:45;11.57;;;5.43;;
2756;SDS011;1386;50.862;6.494;2024-01-27T09:40:16;8.30;;;4.60;;
2756;SDS011;1386;50.862;6.494;2024-01-27T09:42:47;5.53;;;4.30;;
2756;SDS011;1386;50.862;6.494;2024-01-27T09:45:18;8.00;;;4.63;;
2756;SDS011;1386;50.862;6.494;2024-01-27T09:47:50;11.50;;;4.77;;
2756;SDS011;1386;50.862;6.494;2024-01-27T09:50:22;11.23;;;4.70;;
2756;SDS011;1386;50.862;6.494;2024-01-27T09:52:49;9.53;;;4.73;;
2756;SDS011;1386;50.862;6.494;2024-01-27T09:55:17;13.17;;;4.80;;
2756;SDS011;1386;50.862;6.494;2024-01-27T09:57:44;10.23;;;4.77;;
2756;SDS011;1386;50.862;6.494;2024-01-27T10:00:11;14.93;;;6.03;;
2756;SDS011;1386;50.862;6.494;2024-01-27T10:51:18;11.53;;;3.93;;
2756;SDS011;1386;50.862;6.494;2024-01-27T10:53:50;10.33;;;4.13;;
2756;SDS011;1386;50.862;6.494;2024-01-27T10:56:20;9.23;;;4.10;;
2756;SDS011;1386;50.862;6.494;2024-01-27T10:58:49;11.30;;;3.73;;
2756;SDS011;1386;50.862;6.494;2024-01-27T11:01:18;8.00;;;4.23;;
2756;SDS011;1386;50.862;6.494;2024-01-27T11:03:48;10.63;;;3.37;;
2756;SDS011;1386;50.862;6.494;2024-01-27T11:06:17;8.43;;;3.20;;
2756;SDS011;1386;50.862;6.494;2024-01-27T11:08:48;14.63;;;2.90;;
2756;SDS011;1386;50.862;6.494;2024-01-27T11:11:16;10.03;;;2.90;;
2756;SDS011;1386;50.862;6.494;2024-01-27T11:13:44;8.40;;;2.93;;
2756;SDS011;1386;50.862;6.494;2024-01-27T11:16:16;3.80;;;2.67;;
2756;SDS011;1386;50.862;6.494;2024-01-27T11:18:45;7.90;;;3.13;;
2756;SDS011;1386;50.862;6.494;2024-01-27T11:21:13;9.43;;;3.07;;
2756;SDS011;1386;50.862;6.494;2024-01-27T11:23:43;5.87;;;3.10;;
2756;SDS011;1386;50.862;6.494;2024-01-27T11:26:18;13.10;;;3.40;;
2756;SDS011;1386;50.862;6.494;2024-01-27T11:28:48;8.47;;;3.83;;
2756;SDS011;1386;50.862;6.494;2024-01-27T11:31:16;10.07;;;3.87;;
2756;SDS011;1386;50.862;6.494;2024-01-27T11:33:47;7.90;;;3.60;;
2756;SDS011;1386;50.862;6.494;2024-01-27T11:36:18;9.50;;;3.80;;
2756;SDS011;1386;50.862;6.494;2024-01-27T11:38:48;6.90;;;3.20;;
2756;SDS011;1386;50.862;6.494;2024-01-27T11:41:23;11.00;;;3.50;;
2756;SDS011;1386;50.862;6.494;2024-01-27T11:43:51;7.23;;;3.30;;
2756;SDS011;1386;50.862;6.494;2024-01-27T11:46:21;6.60;;;2.57;;
2756;SDS011;1386;50.862;6.494;2024-01-27T11:48:50;7.40;;;2.60;;
2756;SDS011;1386;50.862;6.494;2024-01-27T11:51:17;6.47;;;3.40;;
2756;SDS011;1386;50.862;6.494;2024-01-27T11:53:45;10.70;;;2.90;;
2756;SDS011;1386;50.862;6.494;2024-01-27T11:56:14;8.47;;;2.63;;
2756;SDS011;1386;50.862;6.494;2024-01-27T11:58:46;5.03;;;2.53;;
2756;SDS011;1386;50.862;6.494;2024-01-27T12:01:14;7.20;;;2.43;;
2756;SDS011;1386;50.862;6.494;2024-01-27T12:03:42;5.00;;;2.40;;
2756;SDS011;1386;50.862;6.494;2024-01-27T12:06:10;6.53;;;2.53;;
2756;SDS011;1386;50.862;6.494;2024-01-27T12:08:38;6.67;;;3.00;;
2756;SDS011;1386;50.862;6.494;2024-01-27T12:11:05;4.90;;;2.00;;
2756;SDS011;1386;50.862;6.494;2024-01-27T12:13:36;6.53;;;2.37;;
2756;SDS011;1386;50.862;6.494;2024-01-27T12:16:04;9.80;;;2.43;;
2756;SDS011;1386;50.862;6.494;2024-01-27T12:18:32;6.00;;;2.17;;
2756;SDS011;1386;50.862;6.494;2024-01-27T12:20:59;7.57;;;2.30;;
2756;SDS011;1386;50.862;6.494;2024-01-27T12:23:27;7.47;;;3.60;;
2756;SDS011;1386;50.862;6.494;2024-01-27T12:25:54;6.97;;;2.30;;
2756;SDS011;1386;50.862;6.494;2024-01-27T12:28:22;6.10;;;2.20;;
2756;SDS011;1386;50.862;6.494;2024-01-27T12:30:53;9.53;;;2.60;;
2756;SDS011;1386;50.862;6.494;2024-01-27T12:33:20;5.60;;;2.57;;
2756;SDS011;1386;50.862;6.494;2024-01-27T12:35:50;5.57;;;2.03;;
2756;SDS011;1386;50.862;6.494;2024-01-27T12:38:19;4.83;;;2.17;;
2756;SDS011;1386;50.862;6.494;2024-01-27T12:40:46;5.23;;;2.20;;
2756;SDS011;1386;50.862;6.494;2024-01-27T12:43:13;5.40;;;2.13;;
2756;SDS011;1386;50.862;6.494;2024-01-27T12:45:41;6.53;;;2.77;;
2756;SDS011;1386;50.862;6.494;2024-01-27T12:48:09;6.40;;;2.67;;
2756;SDS011;1386;50.862;6.494;2024-01-27T12:50:36;4.00;;;2.10;;
2756;SDS011;1386;50.862;6.494;2024-01-27T12:53:04;6.10;;;3.00;;
2756;SDS011;1386;50.862;6.494;2024-01-27T12:55:31;6.90;;;2.13;;
2756;SDS011;1386;50.862;6.494;2024-01-27T12:57:58;5.07;;;2.33;;
2756;SDS011;1386;50.862;6.494;2024-01-27T13:00:25;7.80;;;2.10;;
2756;SDS011;1386;50.862;6.494;2024-01-27T13:02:52;6.70;;;2.47;;
2756;SDS011;1386;50.862;6.494;2024-01-27T13:05:21;6.97;;;2.63;;
2756;SDS011;1386;50.862;6.494;2024-01-27T13:07:48;8.13;;;2.47;;
2756;SDS011;1386;50.862;6.494;2024-01-27T13:10:15;9.50;;;2.57;;
2756;SDS011;1386;50.862;6.494;2024-01-27T13:12:42;6.90;;;2.77;;
2756;SDS011;1386;50.862;6.494;2024-01-27T13:15:10;7.77;;;3.00;;
2756;SDS011;1386;50.862;6.494;2024-01-27T13:17:37;7.10;;;2.53;;
2756;SDS011;1386;50.862;6.494;2024-01-27T13:20:04;7.97;;;2.40;;
2756;SDS011;1386;50.862;6.494;2024-01-27T13:22:34;8.57;;;3.40;;
2756;SDS011;1386;50.862;6.494;2024-01-27T13:25:00;7.17;;;2.53;;
2756;SDS011;1386;50.862;6.494;2024-01-27T13:27:29;6.23;;;2.20;;
2756;SDS011;1386;50.862;6.494;2024-01-27T13:29:56;7.00;;;2.93;;
2756;SDS011;1386;50.862;6.494;2024-01-27T13:32:23;8.23;;;2.33;;
2756;SDS011;1386;50.862;6.494;2024-01-27T13:34:51;3.83;;;2.80;;
2756;SDS011;1386;50.862;6.494;2024-01-27T13:37:18;4.30;;;2.40;;
2756;SDS011;1386;50.862;6.494;2024-01-27T13:39:48;7.27;;;2.60;;
2756;SDS011;1386;50.862;6.494;2024-01-27T13:42:15;5.20;;;2.00;;
2756;SDS011;1386;50.862;6.494;2024-01-27T13:44:42;6.93;;;2.83;;
2756;SDS011;1386;50.862;6.494;2024-01-27T13:47:18;6.23;;;2.77;;
2756;SDS011;1386;50.862;6.494;2024-01-27T13:49:45;6.10;;;2.43;;
2756;SDS011;1386;50.862;6.494;2024-01-27T13:52:12;7.50;;;3.63;;
2756;SDS011;1386;50.862;6.494;2024-01-27T13:54:39;7.27;;;2.47;;
2756;SDS011;1386;50.862;6.494;2024-01-27T13:57:07;6.23;;;2.27;;
2756;SDS011;1386;50.862;6.494;2024-01-27T13:59:36;8.10;;;2.63;;
2756;SDS011;1386;50.862;6.494;2024-01-27T14:02:03;8.80;;;2.87;;
2756;SDS011;1386;50.862;6.494;2024-01-27T14:04:30;4.30;;;2.30;;
2756;SDS011;1386;50.862;6.494;2024-01-27T14:07:00;6.57;;;3.00;;
2756;SDS011;1386;50.862;6.494;2024-01-27T14:09:27;5.07;;;2.37;;
2756;SDS011;1386;50.862;6.494;2024-01-27T14:11:54;4.07;;;2.47;;
2756;SDS011;1386;50.862;6.494;2024-01-27T14:14:23;5.23;;;2.23;;
2756;SDS011;1386;50.862;6.494;2024-01-27T14:16:58;9.17;;;2.77;;
2756;SDS011;1386;50.862;6.494;2024-01-27T14:19:32;7.40;;;2.97;;
2756;SDS011;1386;50.862;6.494;2024-01-27T14:22:03;10.93;;;2.80;;
2756;SDS011;1386;50.862;6.494;2024-01-27T14:24:50;8.27;;;3.47;;
2756;SDS011;1386;50.862;6.494;2024-01-27T14:27:39;8.30;;;2.50;;
2756;SDS011;1386;50.862;6.494;2024-01-27T14:30:23;9.27;;;3.17;;
2756;SDS011;1386;50.862;6.494;2024-01-27T14:33:11;8.50;;;3.10;;
2756;SDS011;1386;50.862;6.494;2024-01-27T14:35:49;7.30;;;3.40;;
2756;SDS011;1386;50.862;6.494;2024-01-27T14:38:34;8.47;;;3.53;;
2756;SDS011;1386;50.862;6.494;2024-01-27T14:41:36;6.27;;;2.73;;
2756;SDS011;1386;50.862;6.494;2024-01-27T14:44:28;11.40;;;3.40;;
2756;SDS011;1386;50.862;6.494;2024-01-27T14:47:13;9.67;;;3.57;;
2756;SDS011;1386;50.862;6.494;2024-01-27T14:50:01;12.67;;;3.50;;
2756;SDS011;1386;50.862;6.494;2024-01-27T14:52:50;6.50;;;3.13;;
2756;SDS011;1386;50.862;6.494;2024-01-27T14:55:36;7.33;;;3.10;;
2756;SDS011;1386;50.862;6.494;2024-01-27T14:58:19;7.83;;;3.30;;
2756;SDS011;1386;50.862;6.494;2024-01-27T15:00:53;9.10;;;4.13;;
2756;SDS011;1386;50.862;6.494;2024-01-27T15:03:46;6.90;;;3.07;;
2756;SDS011;1386;50.862;6.494;2024-01-27T15:06:40;7.23;;;3.07;;
2756;SDS011;1386;50.862;6.494;2024-01-27T15:09:28;9.87;;;3.47;;
2756;SDS011;1386;50.862;6.494;2024-01-27T15:12:21;9.70;;;2.53;;
2756;SDS011;1386;50.862;6.494;2024-01-27T15:15:09;7.67;;;3.27;;
2756;SDS011;1386;50.862;6.494;2024-01-27T15:17:45;5.77;;;2.60;;
2756;SDS011;1386;50.862;6.494;2024-01-27T15:20:27;5.23;;;2.50;;
2756;SDS011;1386;50.862;6.494;2024-01-27T15:23:12;7.97;;;3.27;;
2756;SDS011;1386;50.862;6.494;2024-01-27T15:25:56;9.90;;;3.37;;
2756;SDS011;1386;50.862;6.494;2024-01-27T15:28:31;17.80;;;4.27;;
2756;SDS011;1386;50.862;6.494;2024-01-27T15:31:39;6.23;;;3.20;;
2756;SDS011;1386;50.862;6.494;2024-01-27T15:34:16;6.47;;;3.43;;
2756;SDS011;1386;50.862;6.494;2024-01-27T15:37:04;7.70;;;3.17;;
2756;SDS011;1386;50.862;6.494;2024-01-27T15:39:40;8.20;;;2.73;;
2756;SDS011;1386;50.862;6.494;2024-01-27T15:42:27;9.17;;;3.50;;
2756;SDS011;1386;50.862;6.494;2024-01-27T15:45:03;12.07;;;3.33;;
2756;SDS011;1386;50.862;6.494;2024-01-27T15:47:49;11.67;;;3.63;;
2756;SDS011;1386;50.862;6.494;2024-01-27T15:50:27;12.17;;;3.30;;
2756;SDS011;1386;50.862;6.494;2024-01-27T15:53:11;9.87;;;3.00;;
2756;SDS011;1386;50.862;6.494;2024-01-27T15:55:48;12.13;;;3.10;;
2756;SDS011;1386;50.862;6.494;2024-01-27T15:58:35;10.87;;;3.23;;
2756;SDS011;1386;50.862;6.494;2024-01-27T16:01:11;6.93;;;2.83;;
2756;SDS011;1386;50.862;6.494;2024-01-27T16:03:46;9.80;;;2.87;;
2756;SDS011;1386;50.862;6.494;2024-01-27T16:06:20;9.83;;;3.20;;
2756;SDS011;1386;50.862;6.494;2024-01-27T16:09:10;6.53;;;3.00;;
2756;SDS011;1386;50.862;6.494;2024-01-27T16:11:46;12.60;;;3.40;;
2756;SDS011;1386;50.862;6.494;2024-01-27T16:14:33;9.23;;;3.90;;
2756;SDS011;1386;50.862;6.494;2024-01-27T16:17:18;9.20;;;3.23;;